Terminal Aerodrome Forecast
Issued by NWS

Home | Current Version | Previous Version | Text Only | Print | Product List | Glossary On
Versions: 1 2 3 4 5 6 7 8 9 10 11 12 13 14
000
FTUS45 KABQ 121100
TAFGUP
TAF
KGUP 121138Z 1212/1312 VRB05KT P6SM BKN100
     FM121800 12009KT P6SM VCSH SCT070 BKN100
      TEMPO 1220/1223 VRB20G30KT 6SM -TSRA BKN070CB
     FM130600 VRB05KT P6SM BKN090=

USA.gov is the U.S. government's official web portal to all federal, state and local government web resources and services.